Time;durP1;ratioP1;P1;durP2;ratioP2;P2;SDS_P1;SDS_P2;PMS_P1;PMS_P2;Temp;Humidity;BMP_temperature;BMP_pressure;BME280_temperature;BME280_humidity;BME280_pressure;Samples;Min_cycle;Max_cycle;Signal;HPM_P1;HPM_P2
2021/04/04 00:00:46;;;;;;;7.87;3.50;;;;;;;;;;5133249;27;20050;-52
2021/04/04 00:03:12;;;;;;;6.93;3.97;;;;;;;;;;5131738;27;20114;-55
2021/04/04 00:05:37;;;;;;;6.63;3.37;;;;;;;;;;5126527;27;20019;-52
2021/04/04 00:08:02;;;;;;;8.77;3.93;;;;;;;;;;5122478;27;20027;-47
2021/04/04 00:10:27;;;;;;;6.13;3.87;;;;;;;;;;5134216;27;20033;-50
2021/04/04 00:12:53;;;;;;;7.93;3.50;;;;;;;;;;5131293;27;20027;-52
2021/04/04 00:15:18;;;;;;;8.10;3.77;;;;;;;;;;5134034;27;20019;-53
2021/04/04 00:17:43;;;;;;;6.47;3.60;;;;;;;;;;5133497;27;20019;-54
2021/04/04 00:20:13;;;;;;;6.30;3.13;;;;;;;;;;5124538;27;20023;-53
2021/04/04 00:22:38;;;;;;;8.30;3.00;;;;;;;;;;5125864;27;20256;-53
2021/04/04 00:25:09;;;;;;;7.87;3.70;;;;;;;;;;5133482;27;20021;-50
2021/04/04 00:27:34;;;;;;;8.37;3.57;;;;;;;;;;5134069;27;20011;-52
2021/04/04 00:30:00;;;;;;;6.33;3.50;;;;;;;;;;5117010;27;20019;-54
2021/04/04 00:32:25;;;;;;;4.87;3.00;;;;;;;;;;5120625;27;20562;-54
2021/04/04 00:34:50;;;;;;;7.90;4.07;;;;;;;;;;5113674;27;20102;-52
2021/04/04 00:37:15;;;;;;;7.20;3.50;;;;;;;;;;5133822;27;20023;-52
2021/04/04 00:39:41;;;;;;;6.73;3.53;;;;;;;;;;5119156;27;20118;-50
2021/04/04 00:42:06;;;;;;;8.57;4.60;;;;;;;;;;5126334;27;20024;-53
2021/04/04 00:44:31;;;;;;;8.63;4.00;;;;;;;;;;5113821;28;20112;-55
2021/04/04 00:46:56;;;;;;;7.70;3.60;;;;;;;;;;5122443;27;20106;-52
2021/04/04 00:49:22;;;;;;;5.43;3.03;;;;;;;;;;5128715;27;20024;-51
2021/04/04 00:51:47;;;;;;;7.37;3.73;;;;;;;;;;5110475;28;20054;-54
2021/04/04 00:54:12;;;;;;;7.57;3.53;;;;;;;;;;5125431;27;20506;-53
2021/04/04 00:56:37;;;;;;;9.13;3.20;;;;;;;;;;5115375;27;20023;-48
2021/04/04 00:59:03;;;;;;;10.40;3.60;;;;;;;;;;5123946;27;20095;-52
2021/04/04 01:01:28;;;;;;;7.20;3.07;;;;;;;;;;5119075;27;20019;-53
2021/04/04 01:03:53;;;;;;;8.03;3.40;;;;;;;;;;5131710;27;20011;-55
2021/04/04 01:06:19;;;;;;;4.13;2.97;;;;;;;;;;5133693;27;20062;-54
2021/04/04 01:08:44;;;;;;;7.90;4.00;;;;;;;;;;5131930;27;20102;-54
2021/04/04 01:11:29;;;;;;;4.80;3.10;;;;;;;;;;5130742;27;20027;-55
2021/04/04 01:14:00;;;;;;;8.15;2.92;;;;;;;;;;5080302;28;20037;-53
2021/04/04 01:16:37;;;;;;;6.70;3.30;;;;;;;;;;5082068;28;20024;-53
2021/04/04 01:19:14;;;;;;;7.23;3.40;;;;;;;;;;5089403;28;20044;-51
2021/04/04 01:21:47;;;;;;;7.17;3.30;;;;;;;;;;5086304;28;20032;-53
2021/04/04 01:24:32;;;;;;;6.20;3.00;;;;;;;;;;5087445;28;20040;-53
2021/04/04 01:27:06;;;;;;;6.10;2.72;;;;;;;;;;5069956;28;20024;-53
2021/04/04 01:29:32;;;;;;;5.97;2.27;;;;;;;;;;5087015;28;20035;-49
2021/04/04 01:31:58;;;;;;;6.13;2.77;;;;;;;;;;5067767;28;20133;-53
2021/04/04 01:34:25;;;;;;;5.97;2.97;;;;;;;;;;5075328;28;20579;-54
2021/04/04 01:36:52;;;;;;;4.40;2.80;;;;;;;;;;5080166;28;20483;-53
2021/04/04 01:39:18;;;;;;;5.43;2.53;;;;;;;;;;5082109;28;20032;-52
2021/04/04 01:41:44;;;;;;;5.80;2.93;;;;;;;;;;5077232;28;20028;-50
2021/04/04 01:44:14;;;;;;;4.53;2.47;;;;;;;;;;5081859;27;20031;-53
2021/04/04 01:46:40;;;;;;;6.27;2.90;;;;;;;;;;5123366;27;20029;-50
2021/04/04 01:49:05;;;;;;;3.73;2.27;;;;;;;;;;5129258;27;20380;-52
2021/04/04 01:51:31;;;;;;;5.77;2.40;;;;;;;;;;5109683;28;20044;-52
2021/04/04 01:53:58;;;;;;;5.17;2.50;;;;;;;;;;5118743;27;20037;-53
2021/04/04 01:56:23;;;;;;;4.70;2.67;;;;;;;;;;5133072;27;20469;-52
2021/04/04 01:58:49;;;;;;;7.27;2.87;;;;;;;;;;5120532;27;20053;-51
2021/04/04 02:01:15;;;;;;;3.60;2.47;;;;;;;;;;5129489;27;20251;-53
2021/04/04 02:03:41;;;;;;;4.43;2.50;;;;;;;;;;5132810;27;20019;-52
2021/04/04 02:06:06;;;;;;;4.73;2.10;;;;;;;;;;5133371;27;20106;-54
2021/04/04 02:08:32;;;;;;;5.30;2.40;;;;;;;;;;5123357;27;20039;-55
2021/04/04 02:10:58;;;;;;;4.77;2.10;;;;;;;;;;5128077;28;20034;-52
2021/04/04 02:13:24;;;;;;;5.00;2.17;;;;;;;;;;5132322;27;20019;-52
2021/04/04 02:15:50;;;;;;;4.50;2.07;;;;;;;;;;5116721;27;20782;-53
2021/04/04 02:18:15;;;;;;;3.53;2.20;;;;;;;;;;5119230;27;20019;-52
2021/04/04 02:20:41;;;;;;;4.10;2.50;;;;;;;;;;5126292;28;20012;-54
2021/04/04 02:23:09;;;;;;;4.40;2.03;;;;;;;;;;5119209;27;20440;-53
2021/04/04 02:25:35;;;;;;;4.57;2.23;;;;;;;;;;5127702;27;20055;-53
2021/04/04 02:28:00;;;;;;;4.30;2.57;;;;;;;;;;5116880;27;20043;-53
2021/04/04 02:30:26;;;;;;;4.50;1.87;;;;;;;;;;5129147;27;20023;-54
2021/04/04 02:33:05;;;;;;;4.47;2.07;;;;;;;;;;5122699;27;20607;-53
2021/04/04 02:35:36;;;;;;;4.83;2.47;;;;;;;;;;5128791;27;20067;-54
2021/04/04 02:38:02;;;;;;;4.97;2.47;;;;;;;;;;5136873;27;20015;-54
2021/04/04 02:40:28;;;;;;;5.73;2.10;;;;;;;;;;5129770;27;20419;-54
2021/04/04 02:42:55;;;;;;;6.07;3.00;;;;;;;;;;5123633;27;20102;-52
2021/04/04 02:45:22;;;;;;;3.97;2.30;;;;;;;;;;5136002;27;20025;-52
2021/04/04 02:47:50;;;;;;;6.33;2.57;;;;;;;;;;5136758;27;20547;-52
2021/04/04 02:50:16;;;;;;;4.40;2.70;;;;;;;;;;5129790;27;20070;-55
2021/04/04 02:52:42;;;;;;;4.80;2.77;;;;;;;;;;5114939;27;20420;-50
2021/04/04 02:55:08;;;;;;;6.23;3.00;;;;;;;;;;5134017;27;20027;-54
2021/04/04 02:57:34;;;;;;;5.47;2.43;;;;;;;;;;5136778;27;20037;-54
2021/04/04 03:00:01;;;;;;;6.67;2.93;;;;;;;;;;5133044;27;20486;-54
2021/04/04 03:02:27;;;;;;;5.80;2.80;;;;;;;;;;5116786;27;20093;-54
2021/04/04 03:04:54;;;;;;;4.07;2.43;;;;;;;;;;5115938;28;20127;-54
2021/04/04 03:07:21;;;;;;;5.77;3.33;;;;;;;;;;5133262;27;20027;-54
2021/04/04 03:09:49;;;;;;;5.47;3.20;;;;;;;;;;5132525;27;20051;-53
2021/04/04 03:12:15;;;;;;;4.63;2.70;;;;;;;;;;5132534;27;20098;-55
2021/04/04 03:14:41;;;;;;;6.83;2.90;;;;;;;;;;5135434;27;20153;-55
2021/04/04 03:17:07;;;;;;;8.53;2.43;;;;;;;;;;5134207;27;20038;-49
2021/04/04 03:19:33;;;;;;;3.73;2.17;;;;;;;;;;5135489;27;20382;-54
2021/04/04 03:21:59;;;;;;;4.97;2.40;;;;;;;;;;5130949;27;20142;-56
2021/04/04 03:24:25;;;;;;;4.53;1.90;;;;;;;;;;5134618;27;20482;-53
2021/04/04 03:26:51;;;;;;;4.63;2.00;;;;;;;;;;5121690;27;20525;-55
2021/04/04 03:29:17;;;;;;;4.70;1.73;;;;;;;;;;5119592;27;20043;-55
2021/04/04 03:31:43;;;;;;;7.40;2.60;;;;;;;;;;5130539;27;20043;-52
2021/04/04 03:34:08;;;;;;;3.73;2.10;;;;;;;;;;5135452;27;20075;-52
2021/04/04 03:36:34;;;;;;;3.67;2.20;;;;;;;;;;5124130;27;20111;-51
2021/04/04 03:39:00;;;;;;;5.77;2.33;;;;;;;;;;5131600;27;20022;-54
2021/04/04 03:41:27;;;;;;;6.07;2.10;;;;;;;;;;5120478;27;20007;-54
2021/04/04 03:43:52;;;;;;;6.30;2.20;;;;;;;;;;5134030;27;20397;-53
2021/04/04 03:46:21;;;;;;;3.67;2.00;;;;;;;;;;5134968;27;20023;-54
2021/04/04 03:48:47;;;;;;;3.83;2.10;;;;;;;;;;5135000;27;20505;-52
2021/04/04 03:51:12;;;;;;;7.40;2.63;;;;;;;;;;5131087;27;20039;-51
2021/04/04 03:53:42;;;;;;;3.03;2.10;;;;;;;;;;5132249;27;20023;-52
2021/04/04 03:56:09;;;;;;;3.13;2.10;;;;;;;;;;5135504;27;20034;-53
2021/04/04 03:58:35;;;;;;;4.37;2.13;;;;;;;;;;5134958;27;20106;-55
2021/04/04 04:01:01;;;;;;;3.57;2.03;;;;;;;;;;5131241;27;20011;-53
2021/04/04 04:03:27;;;;;;;5.37;2.33;;;;;;;;;;5134091;27;20019;-50
2021/04/04 04:05:52;;;;;;;6.37;2.37;;;;;;;;;;5121048;27;20332;-50
2021/04/04 04:08:18;;;;;;;5.37;1.70;;;;;;;;;;5132254;27;20034;-52
2021/04/04 04:10:46;;;;;;;7.17;2.13;;;;;;;;;;5117956;27;20461;-52
2021/04/04 04:13:12;;;;;;;4.33;1.60;;;;;;;;;;5131982;27;20090;-51
2021/04/04 04:15:37;;;;;;;4.30;2.17;;;;;;;;;;5123631;27;20030;-51
2021/04/04 04:18:04;;;;;;;3.67;1.90;;;;;;;;;;5134368;27;20020;-53
2021/04/04 04:20:30;;;;;;;4.67;2.10;;;;;;;;;;5133663;27;20370;-53
2021/04/04 04:22:59;;;;;;;5.00;2.40;;;;;;;;;;5130140;27;20011;-53
2021/04/04 04:25:26;;;;;;;4.23;2.23;;;;;;;;;;5124941;27;20351;-52
2021/04/04 04:27:51;;;;;;;4.33;1.90;;;;;;;;;;5133684;27;20034;-48
2021/04/04 04:30:17;;;;;;;5.27;2.00;;;;;;;;;;5132946;27;20023;-54
2021/04/04 04:32:43;;;;;;;5.03;2.10;;;;;;;;;;5131690;27;20030;-50
2021/04/04 04:35:08;;;;;;;5.00;1.67;;;;;;;;;;5132160;27;20070;-54
2021/04/04 04:37:34;;;;;;;4.00;1.70;;;;;;;;;;5133968;27;20031;-55
2021/04/04 04:40:03;;;;;;;4.00;2.00;;;;;;;;;;5133447;27;20052;-52
2021/04/04 04:42:29;;;;;;;7.63;2.13;;;;;;;;;;5131238;27;20015;-50
2021/04/04 04:44:55;;;;;;;4.83;2.33;;;;;;;;;;5132651;27;20015;-50
2021/04/04 04:47:20;;;;;;;3.50;1.83;;;;;;;;;;5133659;27;20027;-52
2021/04/04 04:49:45;;;;;;;3.67;1.70;;;;;;;;;;5133433;27;20037;-52
2021/04/04 04:52:11;;;;;;;6.63;1.73;;;;;;;;;;5128878;27;20019;-50
2021/04/04 04:54:39;;;;;;;5.87;1.93;;;;;;;;;;5121065;27;20057;-50
2021/04/04 04:57:05;;;;;;;6.27;1.57;;;;;;;;;;5131090;27;20031;-54
2021/04/04 04:59:30;;;;;;;3.63;1.97;;;;;;;;;;5127600;27;20063;-52
2021/04/04 05:01:55;;;;;;;7.67;1.70;;;;;;;;;;5128287;27;20021;-51
2021/04/04 05:04:21;;;;;;;4.60;1.93;;;;;;;;;;5133270;27;20423;-53
2021/04/04 05:06:47;;;;;;;3.03;1.63;;;;;;;;;;5134361;27;20019;-56
2021/04/04 05:09:13;;;;;;;6.67;1.83;;;;;;;;;;5133548;27;20023;-56
2021/04/04 05:11:45;;;;;;;3.70;1.80;;;;;;;;;;5125708;27;20019;-56
2021/04/04 05:14:11;;;;;;;4.67;2.10;;;;;;;;;;5131743;27;20049;-52
2021/04/04 05:16:37;;;;;;;5.87;2.30;;;;;;;;;;5111944;27;20062;-52
2021/04/04 05:19:02;;;;;;;6.80;2.33;;;;;;;;;;5113319;28;20069;-53
2021/04/04 05:21:28;;;;;;;6.20;2.30;;;;;;;;;;5120516;27;20018;-49
2021/04/04 05:24:07;;;;;;;6.60;2.30;;;;;;;;;;5133016;27;20505;-55
2021/04/04 05:26:33;;;;;;;4.07;1.80;;;;;;;;;;5132367;27;20023;-51
2021/04/04 05:29:18;;;;;;;7.93;2.03;;;;;;;;;;5132433;27;20027;-54
2021/04/04 05:31:47;;;;;;;5.23;1.57;;;;;;;;;;5115966;27;20022;-52
2021/04/04 05:34:14;;;;;;;2.87;1.67;;;;;;;;;;5132138;27;20027;-53
2021/04/04 05:37:05;;;;;;;3.43;1.90;;;;;;;;;;5133824;27;20023;-55
2021/04/04 05:39:32;;;;;;;3.60;1.47;;;;;;;;;;5118595;27;20068;-53
2021/04/04 05:42:01;;;;;;;4.23;1.63;;;;;;;;;;5125674;27;20140;-53
2021/04/04 05:44:46;;;;;;;4.33;1.60;;;;;;;;;;5133614;27;20026;-52
2021/04/04 05:47:39;;;;;;;4.10;1.40;;;;;;;;;;5113318;28;20019;-52
2021/04/04 05:50:06;;;;;;;3.37;1.83;;;;;;;;;;5120619;27;20051;-52
2021/04/04 05:52:31;;;;;;;5.67;2.20;;;;;;;;;;5129032;27;20016;-53
2021/04/04 05:55:06;;;;;;;3.37;1.60;;;;;;;;;;5132125;27;20023;-52
2021/04/04 05:57:34;;;;;;;2.90;1.60;;;;;;;;;;5131794;27;20031;-55
2021/04/04 06:00:06;;;;;;;2.40;1.37;;;;;;;;;;5129850;27;20053;-56
2021/04/04 06:02:43;;;;;;;4.20;2.00;;;;;;;;;;5128047;28;20041;-54
2021/04/04 06:05:17;;;;;;;4.47;1.90;;;;;;;;;;5133245;27;20026;-55
2021/04/04 06:08:07;;;;;;;3.50;1.73;;;;;;;;;;5133320;28;20043;-55
2021/04/04 06:10:51;;;;;;;4.60;1.90;;;;;;;;;;5130088;27;20106;-52
2021/04/04 06:13:48;;;;;;;4.73;1.73;;;;;;;;;;5112145;28;20073;-52
2021/04/04 06:16:20;;;;;;;4.30;1.63;;;;;;;;;;5056808;28;20041;-54
2021/04/04 06:18:50;;;;;;;3.77;1.83;;;;;;;;;;5049910;28;20025;-52
2021/04/04 06:21:21;;;;;;;4.13;1.80;;;;;;;;;;5033326;28;20029;-51
2021/04/04 06:23:50;;;;;;;3.00;1.50;;;;;;;;;;5061304;28;20422;-53
2021/04/04 06:26:21;;;;;;;3.90;1.90;;;;;;;;;;5054316;28;20052;-54
2021/04/04 06:28:52;;;;;;;2.80;2.00;;;;;;;;;;5058349;28;20060;-53
2021/04/04 06:31:35;;;;;;;4.67;1.97;;;;;;;;;;5048454;28;20187;-50
2021/04/04 06:34:21;;;;;;;5.17;1.90;;;;;;;;;;5069242;28;20540;-52
2021/04/04 06:37:14;;;;;;;5.70;2.53;;;;;;;;;;5056719;28;20033;-54
2021/04/04 06:39:45;;;;;;;3.27;1.40;;;;;;;;;;5060919;28;20044;-54
2021/04/04 06:42:29;;;;;;;5.57;1.10;;;;;;;;;;5052450;28;20025;-53
2021/04/04 06:45:00;;;;;;;2.83;1.07;;;;;;;;;;5060884;28;20063;-53
2021/04/04 06:47:40;;;;;;;3.80;1.30;;;;;;;;;;5056732;28;20025;-54
2021/04/04 06:50:08;;;;;;;2.93;1.50;;;;;;;;;;5055053;28;20496;-51
2021/04/04 06:52:40;;;;;;;2.97;1.40;;;;;;;;;;5105048;28;20556;-52
2021/04/04 06:55:15;;;;;;;1.80;1.20;;;;;;;;;;5118754;28;20037;-52
2021/04/04 06:57:40;;;;;;;5.40;1.40;;;;;;;;;;5131841;27;20502;-52
2021/04/04 07:00:12;;;;;;;3.07;1.27;;;;;;;;;;5118192;28;20034;-55
2021/04/04 07:02:55;;;;;;;3.80;1.30;;;;;;;;;;5109697;28;20379;-52
2021/04/04 07:05:22;;;;;;;2.40;1.20;;;;;;;;;;5112222;28;20379;-54
2021/04/04 07:08:06;;;;;;;3.27;1.60;;;;;;;;;;5111877;28;20027;-53
2021/04/04 07:10:40;;;;;;;3.83;1.40;;;;;;;;;;5114324;28;20026;-54
2021/04/04 07:13:08;;;;;;;1.93;1.17;;;;;;;;;;5122749;27;20022;-52
2021/04/04 07:15:51;;;;;;;2.97;1.10;;;;;;;;;;5135890;27;20019;-52
2021/04/04 07:18:38;;;;;;;2.43;1.40;;;;;;;;;;5126204;27;20020;-50
2021/04/04 07:21:22;;;;;;;2.47;1.17;;;;;;;;;;5132797;27;20475;-49
2021/04/04 07:24:06;;;;;;;3.00;1.30;;;;;;;;;;5136052;27;20025;-53
2021/04/04 07:26:49;;;;;;;2.37;1.00;;;;;;;;;;5135175;27;20026;-53
2021/04/04 07:29:17;;;;;;;3.90;1.40;;;;;;;;;;5128694;27;20114;-53
2021/04/04 07:31:45;;;;;;;2.23;1.03;;;;;;;;;;5125955;27;20011;-55
2021/04/04 07:34:15;;;;;;;4.27;1.40;;;;;;;;;;5135849;27;20023;-56
2021/04/04 07:36:49;;;;;;;2.17;0.93;;;;;;;;;;5135602;27;20027;-55
2021/04/04 07:39:26;;;;;;;2.07;1.07;;;;;;;;;;5132749;27;20007;-56
2021/04/04 07:41:56;;;;;;;1.77;1.00;;;;;;;;;;5119037;27;20022;-51
2021/04/04 07:44:21;;;;;;;3.10;1.97;;;;;;;;;;5113723;28;20015;-50
2021/04/04 07:46:57;;;;;;;3.20;1.30;;;;;;;;;;5125383;27;20018;-50
2021/04/04 07:49:38;;;;;;;4.57;1.63;;;;;;;;;;5126091;27;20051;-54
2021/04/04 07:52:13;;;;;;;1.30;0.77;;;;;;;;;;5127510;27;20087;-54
2021/04/04 07:54:52;;;;;;;2.15;1.00;;;;;;;;;;5135348;27;20031;-52
2021/04/04 07:57:40;;;;;;;2.67;1.33;;;;;;;;;;5124555;27;20050;-52
2021/04/04 08:00:07;;;;;;;3.40;1.27;;;;;;;;;;5060770;28;20076;-52
2021/04/04 08:02:47;;;;;;;4.40;1.37;;;;;;;;;;5067353;28;20040;-52
2021/04/04 08:05:13;;;;;;;3.60;0.87;;;;;;;;;;5055329;28;20400;-52
2021/04/04 08:07:45;;;;;;;2.73;0.87;;;;;;;;;;5058142;28;20110;-55
2021/04/04 08:10:12;;;;;;;3.13;0.97;;;;;;;;;;5062626;28;20033;-51
2021/04/04 08:12:40;;;;;;;4.50;1.03;;;;;;;;;;5053312;28;20032;-51
2021/04/04 08:15:07;;;;;;;2.63;0.90;;;;;;;;;;5062885;28;20055;-49
2021/04/04 08:17:35;;;;;;;1.30;0.37;;;;;;;;;;5062964;28;20048;-56
2021/04/04 08:20:03;;;;;;;1.40;0.40;;;;;;;;;;5060014;28;20066;-54
2021/04/04 08:22:34;;;;;;;2.10;0.60;;;;;;;;;;5053644;28;20162;-52
2021/04/04 08:25:04;;;;;;;1.02;0.38;;;;;;;;;;5056194;28;20028;-56
2021/04/04 08:27:33;;;;;;;1.80;0.37;;;;;;;;;;5035117;28;20039;-55
2021/04/04 08:30:01;;;;;;;3.85;0.60;;;;;;;;;;5056066;28;20045;-55
2021/04/04 08:32:34;;;;;;;1.00;0.30;;;;;;;;;;5051821;28;20025;-56
2021/04/04 08:35:00;;;;;;;1.17;0.25;;;;;;;;;;5061594;28;20032;-55
2021/04/04 08:37:31;;;;;;;2.13;0.60;;;;;;;;;;5091722;28;20047;-53
2021/04/04 08:40:01;;;;;;;0.22;0.15;;;;;;;;;;5118427;27;20102;-52
2021/04/04 08:42:31;;;;;;;2.95;0.63;;;;;;;;;;5131450;27;20050;-55
2021/04/04 08:44:59;;;;;;;2.55;0.60;;;;;;;;;;5123404;27;20490;-51
2021/04/04 08:47:27;;;;;;;2.47;0.60;;;;;;;;;;5126180;27;20019;-51
2021/04/04 08:49:53;;;;;;;2.13;0.35;;;;;;;;;;5130646;27;20088;-54
2021/04/04 08:52:24;;;;;;;3.08;0.50;;;;;;;;;;5121228;27;20043;-52
2021/04/04 08:54:51;;;;;;;1.80;0.32;;;;;;;;;;5126832;27;20455;-52
2021/04/04 08:57:19;;;;;;;2.42;0.82;;;;;;;;;;5113374;28;20360;-54
2021/04/04 08:59:47;;;;;;;2.42;0.52;;;;;;;;;;5130364;27;20019;-53
2021/04/04 09:02:13;;;;;;;0.82;0.40;;;;;;;;;;5130506;27;20034;-52
2021/04/04 09:04:40;;;;;;;3.50;1.10;;;;;;;;;;5129590;27;20019;-54
2021/04/04 09:07:05;;;;;;;0.90;0.30;;;;;;;;;;5123939;27;20027;-53
2021/04/04 09:09:37;;;;;;;1.83;0.77;;;;;;;;;;5128934;27;20023;-48
2021/04/04 09:12:03;;;;;;;0.68;0.30;;;;;;;;;;5119179;27;20080;-54
2021/04/04 09:14:36;;;;;;;1.52;0.57;;;;;;;;;;5123532;27;20508;-54
2021/04/04 09:17:05;;;;;;;1.48;0.52;;;;;;;;;;5133626;27;20200;-54
2021/04/04 09:19:32;;;;;;;2.40;0.57;;;;;;;;;;5133892;27;20019;-54
2021/04/04 09:21:58;;;;;;;1.48;0.47;;;;;;;;;;5130842;27;20102;-52
2021/04/04 09:24:24;;;;;;;1.73;0.50;;;;;;;;;;5127093;27;20034;-53
2021/04/04 09:26:50;;;;;;;2.22;0.70;;;;;;;;;;5126956;27;20027;-53
2021/04/04 09:29:16;;;;;;;1.60;0.60;;;;;;;;;;5130960;27;20030;-51
2021/04/04 09:31:42;;;;;;;2.65;0.57;;;;;;;;;;5130922;27;20050;-55
2021/04/04 09:34:08;;;;;;;2.00;0.40;;;;;;;;;;5133472;27;20076;-52
2021/04/04 09:36:45;;;;;;;1.75;0.60;;;;;;;;;;5130771;27;20482;-54
2021/04/04 09:39:12;;;;;;;3.25;1.08;;;;;;;;;;5124611;27;20109;-52
2021/04/04 09:41:38;;;;;;;3.50;1.08;;;;;;;;;;5118642;27;20367;-55
2021/04/04 09:44:05;;;;;;;1.30;0.50;;;;;;;;;;5118400;27;20015;-53
2021/04/04 09:46:30;;;;;;;3.00;0.90;;;;;;;;;;5112808;28;20495;-51
2021/04/04 09:48:55;;;;;;;2.47;1.48;;;;;;;;;;5112619;28;20027;-51
2021/04/04 09:51:21;;;;;;;2.17;0.90;;;;;;;;;;5116235;27;20054;-51
2021/04/04 09:53:47;;;;;;;3.10;0.80;;;;;;;;;;5132596;27;20023;-52
2021/04/04 09:56:12;;;;;;;2.70;0.70;;;;;;;;;;5132875;27;20392;-51
2021/04/04 09:58:42;;;;;;;3.13;0.68;;;;;;;;;;5124923;27;20024;-53
2021/04/04 10:01:17;;;;;;;1.83;0.60;;;;;;;;;;5111987;28;20445;-54
2021/04/04 10:03:55;;;;;;;2.88;0.75;;;;;;;;;;5132428;27;20023;-50
2021/04/04 10:06:21;;;;;;;1.88;0.80;;;;;;;;;;5133221;27;20015;-55
2021/04/04 10:08:51;;;;;;;1.50;0.73;;;;;;;;;;5133008;28;20023;-52
2021/04/04 10:11:18;;;;;;;2.17;0.68;;;;;;;;;;5129362;27;20015;-54
2021/04/04 10:13:44;;;;;;;2.85;0.77;;;;;;;;;;5132283;27;20541;-55
2021/04/04 10:16:19;;;;;;;1.75;0.80;;;;;;;;;;5132728;28;20103;-53
2021/04/04 10:19:00;;;;;;;2.25;0.93;;;;;;;;;;5123981;28;20015;-53
2021/04/04 10:21:25;;;;;;;2.38;0.75;;;;;;;;;;5114791;28;20023;-54
2021/04/04 10:23:50;;;;;;;3.53;1.00;;;;;;;;;;5112577;28;20016;-55
2021/04/04 10:26:18;;;;;;;1.60;0.60;;;;;;;;;;5118694;28;20011;-55
2021/04/04 10:28:46;;;;;;;3.22;1.05;;;;;;;;;;5130677;27;20065;-56
2021/04/04 10:31:11;;;;;;;3.53;0.90;;;;;;;;;;5121800;27;20387;-52
2021/04/04 10:33:37;;;;;;;1.73;0.80;;;;;;;;;;5119399;27;20111;-55
2021/04/04 10:36:12;;;;;;;2.63;0.60;;;;;;;;;;5118579;28;20023;-54
2021/04/04 10:38:38;;;;;;;1.90;0.60;;;;;;;;;;5116175;27;20026;-56
2021/04/04 10:41:03;;;;;;;1.90;0.90;;;;;;;;;;5111224;27;20016;-51
2021/04/04 10:43:35;;;;;;;2.47;0.70;;;;;;;;;;5116298;27;20047;-53
2021/04/04 10:46:03;;;;;;;3.17;0.80;;;;;;;;;;5116950;27;20022;-55
2021/04/04 10:48:29;;;;;;;2.65;0.90;;;;;;;;;;5121857;27;20015;-52
2021/04/04 10:50:54;;;;;;;4.07;1.10;;;;;;;;;;5116735;27;20043;-53
2021/04/04 10:53:20;;;;;;;1.67;0.70;;;;;;;;;;5118572;27;20405;-51
2021/04/04 10:55:46;;;;;;;3.47;0.98;;;;;;;;;;5113074;27;20020;-53
2021/04/04 10:58:13;;;;;;;2.08;0.85;;;;;;;;;;5121547;27;20019;-55
2021/04/04 11:00:38;;;;;;;3.47;1.30;;;;;;;;;;5132229;27;20374;-53
2021/04/04 11:03:03;;;;;;;2.53;1.00;;;;;;;;;;5133033;27;20019;-50
2021/04/04 11:05:29;;;;;;;3.15;1.00;;;;;;;;;;5125714;27;20031;-49
2021/04/04 11:07:54;;;;;;;4.28;1.00;;;;;;;;;;5130325;27;20068;-51
2021/04/04 11:10:19;;;;;;;2.95;0.93;;;;;;;;;;5116189;27;20019;-54
2021/04/04 11:12:46;;;;;;;3.40;1.30;;;;;;;;;;5126451;27;20102;-53
2021/04/04 11:15:13;;;;;;;5.32;1.50;;;;;;;;;;5134168;27;20112;-52
2021/04/04 11:17:39;;;;;;;4.88;1.38;;;;;;;;;;5115622;28;20031;-50
2021/04/04 11:20:05;;;;;;;4.13;1.40;;;;;;;;;;5115751;27;20029;-54
2021/04/04 11:22:32;;;;;;;2.83;1.35;;;;;;;;;;5116602;27;20071;-55
2021/04/04 11:25:06;;;;;;;2.55;1.58;;;;;;;;;;5135627;27;20441;-55
2021/04/04 11:27:48;;;;;;;4.60;1.38;;;;;;;;;;5120590;27;20012;-52
2021/04/04 11:30:14;;;;;;;3.33;1.20;;;;;;;;;;5115179;27;20476;-55
2021/04/04 11:32:41;;;;;;;4.50;1.45;;;;;;;;;;5114605;27;20040;-55
2021/04/04 11:35:06;;;;;;;3.42;1.63;;;;;;;;;;5115852;28;20020;-54
2021/04/04 11:37:32;;;;;;;4.03;1.23;;;;;;;;;;5125263;27;20049;-54
2021/04/04 11:40:12;;;;;;;2.75;1.55;;;;;;;;;;5125245;27;20023;-54
2021/04/04 11:42:38;;;;;;;4.05;1.90;;;;;;;;;;5120046;27;20059;-55
2021/04/04 11:45:04;;;;;;;1.50;0.93;;;;;;;;;;5113596;28;20051;-56
2021/04/04 11:47:29;;;;;;;2.70;1.42;;;;;;;;;;5132844;27;20063;-56
2021/04/04 11:49:55;;;;;;;6.03;2.28;;;;;;;;;;5134859;27;20055;-55
2021/04/04 11:52:21;;;;;;;2.97;1.95;;;;;;;;;;5120863;27;20027;-55
2021/04/04 11:54:48;;;;;;;2.90;1.50;;;;;;;;;;5128476;27;20015;-53
2021/04/04 11:57:30;;;;;;;2.70;1.50;;;;;;;;;;5114884;27;20026;-54
2021/04/04 12:00:00;;;;;;;3.50;1.50;;;;;;;;;;5124158;27;20105;-54
2021/04/04 12:02:26;;;;;;;5.45;1.55;;;;;;;;;;5125891;27;20050;-50
2021/04/04 12:05:02;;;;;;;5.28;1.60;;;;;;;;;;5121203;27;20480;-52
2021/04/04 12:07:28;;;;;;;3.65;1.67;;;;;;;;;;5124157;27;20049;-49
2021/04/04 12:09:54;;;;;;;3.92;1.60;;;;;;;;;;5121507;27;20031;-55
2021/04/04 12:12:19;;;;;;;3.58;1.40;;;;;;;;;;5123466;27;20019;-52
2021/04/04 12:14:52;;;;;;;3.65;1.50;;;;;;;;;;5124107;27;20390;-52
2021/04/04 12:17:18;;;;;;;3.22;1.70;;;;;;;;;;5122809;27;20023;-56
2021/04/04 12:19:44;;;;;;;3.22;1.48;;;;;;;;;;5122311;27;20386;-53
2021/04/04 12:22:09;;;;;;;3.08;1.60;;;;;;;;;;5122884;27;20072;-55
2021/04/04 12:24:45;;;;;;;2.25;1.35;;;;;;;;;;5123904;27;20019;-55
2021/04/04 12:27:11;;;;;;;5.22;1.80;;;;;;;;;;5125248;27;20025;-52
2021/04/04 12:29:40;;;;;;;2.40;1.75;;;;;;;;;;5123936;27;20024;-55
2021/04/04 12:32:05;;;;;;;2.67;1.00;;;;;;;;;;5121325;27;20536;-54
2021/04/04 12:34:30;;;;;;;2.05;1.63;;;;;;;;;;5123134;27;20027;-54
2021/04/04 12:36:56;;;;;;;2.90;1.70;;;;;;;;;;5123326;27;20039;-55
2021/04/04 12:39:21;;;;;;;4.22;1.40;;;;;;;;;;5126313;27;20442;-54
2021/04/04 12:41:46;;;;;;;3.17;1.50;;;;;;;;;;5122530;27;20078;-55
2021/04/04 12:44:30;;;;;;;1.83;1.38;;;;;;;;;;5125461;27;20029;-53
2021/04/04 12:47:03;;;;;;;2.80;1.20;;;;;;;;;;5125048;27;20090;-55
2021/04/04 12:49:29;;;;;;;1.20;0.65;;;;;;;;;;5123136;27;20041;-54
2021/04/04 12:51:54;;;;;;;3.20;1.30;;;;;;;;;;5120856;27;20466;-52
2021/04/04 12:54:23;;;;;;;3.10;1.23;;;;;;;;;;5123978;27;20059;-52
2021/04/04 12:56:49;;;;;;;2.72;1.42;;;;;;;;;;5123446;27;20027;-52
2021/04/04 12:59:15;;;;;;;4.13;1.50;;;;;;;;;;5123345;27;20404;-54
2021/04/04 13:01:42;;;;;;;1.17;0.98;;;;;;;;;;5119220;27;20015;-54
2021/04/04 13:04:17;;;;;;;2.75;1.27;;;;;;;;;;5126262;27;20015;-56
2021/04/04 13:06:43;;;;;;;3.17;1.65;;;;;;;;;;5124333;27;20050;-55
2021/04/04 13:09:15;;;;;;;2.70;1.40;;;;;;;;;;5123757;27;20378;-53
2021/04/04 13:11:41;;;;;;;2.20;1.10;;;;;;;;;;5122249;27;20019;-54
2021/04/04 13:14:07;;;;;;;3.80;1.20;;;;;;;;;;5124400;27;20058;-56
2021/04/04 13:16:32;;;;;;;4.15;1.30;;;;;;;;;;5122896;27;20102;-55
2021/04/04 13:18:58;;;;;;;4.65;2.00;;;;;;;;;;5121769;27;20040;-55
2021/04/04 13:21:28;;;;;;;3.20;1.83;;;;;;;;;;5119673;27;20584;-57
2021/04/04 13:24:13;;;;;;;2.67;1.63;;;;;;;;;;5123850;27;20385;-55
2021/04/04 13:26:42;;;;;;;4.20;1.35;;;;;;;;;;5123556;27;20039;-54
2021/04/04 13:29:11;;;;;;;2.30;1.60;;;;;;;;;;5120698;27;20110;-56
2021/04/04 13:31:36;;;;;;;2.90;1.30;;;;;;;;;;5122576;27;20436;-56
2021/04/04 13:34:11;;;;;;;2.53;1.27;;;;;;;;;;5126006;27;20023;-54
2021/04/04 13:36:57;;;;;;;3.60;1.20;;;;;;;;;;5117072;27;20028;-54
2021/04/04 13:39:27;;;;;;;2.40;1.40;;;;;;;;;;5120455;27;20114;-56
2021/04/04 13:41:53;;;;;;;3.13;1.73;;;;;;;;;;5120934;27;20025;-55
2021/04/04 13:44:23;;;;;;;2.80;1.27;;;;;;;;;;5125017;27;20065;-55
2021/04/04 13:46:51;;;;;;;3.35;1.95;;;;;;;;;;5122748;27;20033;-55
2021/04/04 13:49:20;;;;;;;4.47;2.20;;;;;;;;;;5120464;27;20041;-57
2021/04/04 13:51:45;;;;;;;2.40;1.60;;;;;;;;;;5120024;27;20043;-54
2021/04/04 13:54:21;;;;;;;4.10;1.67;;;;;;;;;;5118524;28;20516;-54
2021/04/04 13:56:50;;;;;;;5.05;1.98;;;;;;;;;;5127033;27;20020;-54
2021/04/04 13:59:17;;;;;;;3.08;1.20;;;;;;;;;;5118029;28;20015;-54
2021/04/04 14:01:46;;;;;;;5.22;1.67;;;;;;;;;;5120028;27;20026;-52
2021/04/04 14:04:16;;;;;;;4.05;1.77;;;;;;;;;;5112766;28;20024;-52
2021/04/04 14:06:43;;;;;;;3.92;1.73;;;;;;;;;;5112637;28;20482;-54
2021/04/04 14:09:09;;;;;;;3.90;2.30;;;;;;;;;;5125948;27;20055;-54
2021/04/04 14:11:35;;;;;;;4.57;2.60;;;;;;;;;;5127594;27;20019;-55
2021/04/04 14:14:02;;;;;;;4.63;2.17;;;;;;;;;;5118133;28;20027;-55
2021/04/04 14:16:27;;;;;;;4.30;2.00;;;;;;;;;;5116859;28;20390;-54
2021/04/04 14:18:52;;;;;;;4.25;2.33;;;;;;;;;;5123296;28;20008;-53
2021/04/04 14:21:17;;;;;;;3.55;2.03;;;;;;;;;;5120879;27;20015;-53
2021/04/04 14:23:43;;;;;;;3.38;1.63;;;;;;;;;;5135895;27;20022;-53
2021/04/04 14:26:08;;;;;;;6.03;2.50;;;;;;;;;;5126886;27;20470;-53
2021/04/04 14:28:34;;;;;;;7.03;3.28;;;;;;;;;;5121520;27;20445;-54
2021/04/04 14:30:59;;;;;;;9.40;4.18;;;;;;;;;;5121503;27;21423;-52
2021/04/04 14:33:25;;;;;;;8.02;4.30;;;;;;;;;;5118582;27;20027;-53
2021/04/04 14:35:50;;;;;;;8.95;4.18;;;;;;;;;;5136463;27;20023;-53
2021/04/04 14:38:16;;;;;;;10.52;4.85;;;;;;;;;;5125022;27;20540;-53
2021/04/04 14:40:41;;;;;;;5.55;2.80;;;;;;;;;;5133736;27;20470;-54
2021/04/04 14:43:22;;;;;;;6.90;3.67;;;;;;;;;;5130024;27;20020;-55
2021/04/04 14:45:48;;;;;;;6.15;4.18;;;;;;;;;;5131502;27;20024;-54
2021/04/04 14:48:13;;;;;;;8.07;4.22;;;;;;;;;;5129032;27;20015;-51
2021/04/04 14:50:38;;;;;;;8.02;4.00;;;;;;;;;;5128801;27;20093;-54
2021/04/04 14:53:13;;;;;;;7.28;4.18;;;;;;;;;;5113307;27;20103;-53